createdAt,value
2023-01-06T00:11:02.775Z,6.6
2023-01-06T00:16:10.702Z,6.7
2023-01-06T00:21:17.220Z,6.8
2023-01-06T00:26:09.927Z,7
2023-01-06T00:31:17.548Z,7.1
2023-01-06T00:36:25.047Z,7.4
2023-01-06T00:41:17.959Z,7.5
2023-01-06T00:46:09.903Z,7.5
2023-01-06T00:51:25.907Z,7.4
2023-01-06T00:56:33.401Z,7.4
2023-01-06T01:01:41.292Z,7.3
2023-01-06T01:06:48.687Z,7.6
2023-01-06T01:11:55.539Z,7.7
2023-01-06T01:16:48.182Z,7.8
2023-01-06T01:21:55.590Z,7.8
2023-01-06T01:27:18.380Z,7.8
2023-01-06T01:32:26.431Z,7.8
2023-01-06T01:37:34.043Z,7.8
2023-01-06T01:42:40.820Z,7.8
2023-01-06T01:47:33.026Z,7.8
2023-01-06T01:52:39.986Z,7.9
2023-01-06T01:57:47.393Z,8.1
2023-01-06T02:02:56.491Z,8.1
2023-01-06T02:13:11.256Z,8.1
2023-01-06T02:18:03.729Z,7.9
2023-01-06T02:23:10.940Z,8
2023-01-06T02:28:18.836Z,8.1
2023-01-06T02:33:26.291Z,8.3
2023-01-06T02:38:49.019Z,8.3
2023-01-06T02:48:49.408Z,8.4
2023-01-06T02:53:57.267Z,8.3
2023-01-06T02:58:48.517Z,8.3
2023-01-06T03:04:13.364Z,8.4
2023-01-06T03:09:20.644Z,8.3
2023-01-06T03:14:11.858Z,8.1
2023-01-06T03:19:20.464Z,8
2023-01-06T03:24:28.180Z,8.1
2023-01-06T03:29:19.665Z,8.1
2023-01-06T03:34:10.169Z,8.3
2023-01-06T03:39:18.040Z,8.1
2023-01-06T03:44:21.438Z,7.9
2023-01-06T03:49:43.988Z,7.7
2023-01-06T03:54:52.220Z,7.3
2023-01-06T03:59:59.695Z,7.2
2023-01-06T04:04:36.411Z,7.2
2023-01-06T04:09:42.961Z,7.1
2023-01-06T04:14:35.561Z,6.9
2023-01-06T04:19:43.305Z,7.1
2023-01-06T04:24:49.854Z,7
2023-01-06T04:29:58.278Z,7.2
2023-01-06T04:35:06.327Z,7.1
2023-01-06T04:40:31.024Z,7.2
2023-01-06T04:45:54.528Z,7.5
2023-01-06T04:51:17.766Z,7.3
2023-01-06T04:56:43.120Z,7.3
2023-01-06T05:02:07.430Z,7.4
2023-01-06T05:07:24.260Z,7.4
2023-01-06T05:12:46.098Z,7.3
2023-01-06T05:17:54.319Z,7.4
2023-01-06T05:22:46.562Z,7.2
2023-01-06T05:27:37.127Z,7.2
2023-01-06T05:32:43.854Z,7.1
2023-01-06T05:37:52.445Z,6.9
2023-01-06T05:47:34.874Z,6.8
2023-01-06T05:52:42.743Z,6.8
2023-01-06T05:57:51.669Z,6.8
2023-01-06T06:03:14.749Z,6.8
2023-01-06T06:08:38.042Z,6.8
2023-01-06T06:13:46.468Z,6.7
2023-01-06T06:19:08.775Z,6.6
2023-01-06T06:24:15.774Z,6.8
2023-01-06T06:29:39.345Z,6.9
2023-01-06T06:35:01.858Z,7.1
2023-01-06T06:40:24.698Z,7.4
2023-01-06T06:45:48.712Z,7.7
2023-01-06T06:51:11.366Z,7.6
2023-01-06T06:56:34.980Z,8
2023-01-06T07:01:59.287Z,8
2023-01-06T07:07:22.642Z,8.1
2023-01-06T07:12:31.239Z,8.2
2023-01-06T07:17:24.091Z,8.5
2023-01-06T07:22:47.792Z,8.5
2023-01-06T07:28:11.175Z,8.8
2023-01-06T07:33:35.016Z,8.9
2023-01-06T07:38:58.236Z,9.1
2023-01-06T07:44:22.122Z,8.9
2023-01-06T07:49:46.621Z,8.8
2023-01-06T07:55:11.091Z,9.1
2023-01-06T08:00:19.024Z,9.4
2023-01-06T08:05:44.169Z,9.4
2023-01-06T08:11:07.604Z,9.6
2023-01-06T08:16:31.579Z,9.6
2023-01-06T08:21:39.874Z,9.7
2023-01-06T08:27:03.419Z,10.1
2023-01-06T08:32:35.252Z,10.1
2023-01-06T08:37:59.392Z,9.9
2023-01-06T08:43:22.577Z,10.1
2023-01-06T08:48:46.001Z,10.4
2023-01-06T08:54:11.571Z,10.9
2023-01-06T08:59:02.965Z,10.4
2023-01-06T09:04:26.782Z,10.7
2023-01-06T09:09:35.914Z,10.5
2023-01-06T09:15:01.054Z,10.6
2023-01-06T09:20:25.025Z,10.9
2023-01-06T09:25:49.526Z,10.6
2023-01-06T09:30:57.355Z,10.8
2023-01-06T09:36:21.536Z,10.9
2023-01-06T09:41:45.423Z,11.2
2023-01-06T09:47:09.445Z,11.3
2023-01-06T09:52:17.296Z,11.3
2023-01-06T09:57:25.664Z,11.3
2023-01-06T10:02:50.145Z,11.3
2023-01-06T10:08:14.140Z,11.2
2023-01-06T10:13:22.702Z,12
2023-01-06T10:18:46.569Z,12.1
2023-01-06T10:24:10.495Z,11.6
2023-01-06T10:29:34.907Z,11.8
2023-01-06T10:35:02.158Z,11.9
2023-01-06T10:40:28.455Z,11.2
2023-01-06T10:45:53.174Z,10.8
2023-01-06T10:51:01.170Z,10.3
2023-01-06T10:56:09.694Z,10.4
2023-01-06T11:01:18.573Z,10.8
2023-01-06T11:07:03.645Z,10.8
2023-01-06T11:12:35.481Z,11.6
2023-01-06T11:17:59.761Z,11.5
2023-01-06T11:23:09.475Z,11.9
2023-01-06T11:28:33.504Z,11.8
2023-01-06T11:33:57.360Z,11.9
2023-01-06T11:39:05.425Z,11.9
2023-01-06T11:44:42.354Z,12.3
2023-01-06T11:50:07.998Z,12.1
2023-01-06T11:55:31.503Z,12.3
2023-01-06T12:00:55.433Z,12.1
2023-01-06T12:06:20.093Z,11.6
2023-01-06T12:11:43.068Z,10.9
2023-01-06T12:17:34.217Z,10.8
2023-01-06T12:22:42.143Z,11.3
2023-01-06T12:28:05.657Z,11.1
2023-01-06T12:33:29.537Z,11.3
2023-01-06T12:38:38.151Z,11.4
2023-01-06T12:44:01.983Z,11.6
2023-01-06T12:49:31.557Z,11
2023-01-06T12:55:05.401Z,10.9
2023-01-06T13:00:28.540Z,11.1
2023-01-06T13:05:37.271Z,11
2023-01-06T13:11:00.660Z,11.1
2023-01-06T13:16:24.309Z,10.6
2023-01-06T13:21:50.606Z,10.2
2023-01-06T13:27:14.481Z,9.8
2023-01-06T13:32:06.652Z,9.7
2023-01-06T13:37:30.339Z,9.6
2023-01-06T13:42:53.822Z,9.6
2023-01-06T13:48:17.587Z,9.4
2023-01-06T13:53:10.288Z,9.3
2023-01-06T13:58:34.494Z,9.6
2023-01-06T14:03:43.847Z,9.4
2023-01-06T14:08:51.932Z,9.3
2023-01-06T14:14:16.304Z,9.3
2023-01-06T14:19:24.398Z,9.3
2023-01-06T14:24:48.435Z,9.6
2023-01-06T14:30:11.716Z,9.7
2023-01-06T14:35:36.713Z,9.5
2023-01-06T14:41:00.369Z,9.3
2023-01-06T14:46:08.942Z,9.2
2023-01-06T14:51:38.327Z,8.9
2023-01-06T14:56:46.349Z,8.9
2023-01-06T15:01:54.799Z,8.7
2023-01-06T15:07:02.331Z,8.6
2023-01-06T15:12:25.427Z,8.4
2023-01-06T15:17:44.478Z,8.1
2023-01-06T15:23:06.979Z,8.3
2023-01-06T15:27:59.527Z,8.1
2023-01-06T15:33:08.259Z,8.1
2023-01-06T15:38:31.870Z,7.8
2023-01-06T15:43:56.158Z,7.8
2023-01-06T15:49:19.852Z,7.8
2023-01-06T15:54:26.772Z,7.9
2023-01-06T15:59:54.208Z,7.6
2023-01-06T16:04:47.689Z,7.5
2023-01-06T16:09:38.688Z,7.4
2023-01-06T16:19:22.001Z,7.4
2023-01-06T16:24:45.995Z,7.4
2023-01-06T16:29:53.063Z,7.4
2023-01-06T16:35:00.657Z,7.7
2023-01-06T16:40:08.571Z,7.5
2023-01-06T16:45:31.609Z,7.3
2023-01-06T16:50:24.007Z,7.4
2023-01-06T16:55:48.621Z,7.4
2023-01-06T17:00:56.513Z,7.4
2023-01-06T17:06:05.444Z,7.3
2023-01-06T17:11:29.219Z,7.3
2023-01-06T17:16:52.379Z,7.3
2023-01-06T17:22:00.599Z,7.1
2023-01-06T17:27:24.605Z,7.3
2023-01-06T17:32:32.237Z,7.2
2023-01-06T17:37:40.126Z,7.3
2023-01-06T17:43:04.152Z,7.2
2023-01-06T17:47:55.778Z,7.3
2023-01-06T17:53:18.302Z,7.3
2023-01-06T17:58:10.409Z,7.2
2023-01-06T18:03:33.595Z,6.9
2023-01-06T18:08:41.091Z,6.6
2023-01-06T18:14:05.159Z,6.4
2023-01-06T18:24:22.584Z,6.6
2023-01-06T18:29:46.654Z,6.6
2023-01-06T18:34:54.582Z,6.9
2023-01-06T18:40:02.512Z,6.9
2023-01-06T18:45:11.649Z,7
2023-01-06T18:50:19.397Z,6.8
2023-01-06T18:55:11.685Z,6.4
2023-01-06T19:00:04.362Z,6.2
2023-01-06T19:05:12.219Z,5.9
2023-01-06T19:10:37.926Z,5.7
2023-01-06T19:16:02.484Z,5.6
2023-01-06T19:21:10.378Z,5.5
2023-01-06T19:26:21.625Z,5.8
2023-01-06T19:31:17.141Z,6.1
2023-01-06T19:36:30.740Z,6.2
2023-01-06T19:41:42.362Z,5.9
2023-01-06T19:47:09.892Z,6.1
2023-01-06T19:52:19.732Z,5.8
2023-01-06T19:57:30.665Z,6.2
2023-01-06T20:02:44.101Z,6.3
2023-01-06T20:07:54.936Z,5.9
2023-01-06T20:13:03.425Z,5.6
2023-01-06T20:18:29.766Z,5.4
2023-01-06T20:23:25.633Z,5.4
2023-01-06T20:28:53.883Z,5.4
2023-01-06T20:33:35.931Z,5.3
2023-01-06T20:39:02.201Z,5.4
2023-01-06T20:44:27.535Z,5.3
2023-01-06T20:49:35.710Z,5.1
2023-01-06T20:54:58.656Z,5.3
2023-01-06T21:00:06.547Z,5.1
2023-01-06T21:05:16.786Z,4.9
2023-01-06T21:10:24.322Z,4.9
2023-01-06T21:15:32.149Z,4.8
2023-01-06T21:20:24.613Z,4.6
2023-01-06T21:25:47.840Z,4.6
2023-01-06T21:31:11.585Z,4.5
2023-01-06T21:36:18.867Z,4.4
2023-01-06T21:41:10.659Z,4.3
2023-01-06T21:46:04.067Z,4.3
2023-01-06T21:51:27.546Z,4.4
2023-01-06T21:56:35.534Z,3.8
2023-01-06T22:01:43.429Z,3.1
2023-01-06T22:07:06.443Z,2.7
2023-01-06T22:12:14.540Z,2.9
2023-01-06T22:17:37.933Z,3
2023-01-06T22:22:44.480Z,3.3
2023-01-06T22:27:37.550Z,3
2023-01-06T22:33:01.346Z,2.9
2023-01-06T22:38:08.559Z,3.1
2023-01-06T22:43:32.205Z,3.1
2023-01-06T22:48:40.485Z,3
2023-01-06T22:53:47.031Z,2.6
2023-01-06T22:58:39.985Z,2.2
2023-01-06T23:04:05.296Z,1.6
2023-01-06T23:09:07.565Z,1.7
2023-01-06T23:13:59.983Z,1.7
2023-01-06T23:19:23.519Z,1.4
2023-01-06T23:24:33.427Z,1.5
2023-01-06T23:29:57.130Z,1.4
2023-01-06T23:34:49.248Z,1
2023-01-06T23:40:11.899Z,0.8
2023-01-06T23:45:29.675Z,0.7
2023-01-06T23:50:22.131Z,0.4
2023-01-06T23:55:44.974Z,0.4
